sensor_id;sensor_type;location;lat;lon;timestamp;P1;durP1;ratioP1;P2;durP2;ratioP2
65459;SDS011;52058;49.822;6.754;2023-08-06T00:01:46;2.67;;;2.20;;
65459;SDS011;52058;49.822;6.754;2023-08-06T00:04:12;6.40;;;2.33;;
65459;SDS011;52058;49.822;6.754;2023-08-06T00:06:39;4.85;;;2.08;;
65459;SDS011;52058;49.822;6.754;2023-08-06T00:09:07;4.22;;;2.40;;
65459;SDS011;52058;49.822;6.754;2023-08-06T00:11:33;5.15;;;2.50;;
65459;SDS011;52058;49.822;6.754;2023-08-06T00:14:00;6.95;;;2.45;;
65459;SDS011;52058;49.822;6.754;2023-08-06T00:16:26;4.47;;;2.30;;
65459;SDS011;52058;49.822;6.754;2023-08-06T00:18:53;4.88;;;2.45;;
65459;SDS011;52058;49.822;6.754;2023-08-06T00:21:20;3.50;;;2.17;;
65459;SDS011;52058;49.822;6.754;2023-08-06T00:23:46;4.95;;;2.20;;
65459;SDS011;52058;49.822;6.754;2023-08-06T00:26:14;3.22;;;2.40;;
65459;SDS011;52058;49.822;6.754;2023-08-06T00:28:41;2.65;;;1.70;;
65459;SDS011;52058;49.822;6.754;2023-08-06T00:31:07;2.67;;;1.92;;
65459;SDS011;52058;49.822;6.754;2023-08-06T00:33:34;5.45;;;2.28;;
65459;SDS011;52058;49.822;6.754;2023-08-06T00:36:00;3.28;;;2.17;;
65459;SDS011;52058;49.822;6.754;2023-08-06T00:38:27;5.05;;;2.35;;
65459;SDS011;52058;49.822;6.754;2023-08-06T00:40:54;2.70;;;1.98;;
65459;SDS011;52058;49.822;6.754;2023-08-06T00:43:22;2.83;;;1.77;;
65459;SDS011;52058;49.822;6.754;2023-08-06T00:45:48;5.78;;;2.25;;
65459;SDS011;52058;49.822;6.754;2023-08-06T00:48:15;3.40;;;2.28;;
65459;SDS011;52058;49.822;6.754;2023-08-06T00:50:42;3.25;;;2.30;;
65459;SDS011;52058;49.822;6.754;2023-08-06T00:53:08;3.35;;;2.20;;
65459;SDS011;52058;49.822;6.754;2023-08-06T00:55:35;3.63;;;2.13;;
65459;SDS011;52058;49.822;6.754;2023-08-06T00:58:02;3.88;;;2.33;;
65459;SDS011;52058;49.822;6.754;2023-08-06T01:00:31;3.47;;;2.30;;
65459;SDS011;52058;49.822;6.754;2023-08-06T01:02:57;2.92;;;2.00;;
65459;SDS011;52058;49.822;6.754;2023-08-06T01:05:24;6.72;;;2.38;;
65459;SDS011;52058;49.822;6.754;2023-08-06T01:07:53;3.90;;;2.25;;
65459;SDS011;52058;49.822;6.754;2023-08-06T01:10:33;5.55;;;2.45;;
65459;SDS011;52058;49.822;6.754;2023-08-06T01:13:11;4.25;;;2.45;;
65459;SDS011;52058;49.822;6.754;2023-08-06T01:15:46;3.03;;;1.70;;
65459;SDS011;52058;49.822;6.754;2023-08-06T01:18:15;6.18;;;2.28;;
65459;SDS011;52058;49.822;6.754;2023-08-06T01:20:44;2.78;;;1.60;;
65459;SDS011;52058;49.822;6.754;2023-08-06T01:23:14;3.25;;;1.92;;
65459;SDS011;52058;49.822;6.754;2023-08-06T01:25:43;3.60;;;2.00;;
65459;SDS011;52058;49.822;6.754;2023-08-06T01:28:15;6.68;;;2.15;;
65459;SDS011;52058;49.822;6.754;2023-08-06T01:30:48;2.88;;;1.60;;
65459;SDS011;52058;49.822;6.754;2023-08-06T01:33:16;6.82;;;1.75;;
65459;SDS011;52058;49.822;6.754;2023-08-06T01:35:48;3.60;;;1.40;;
65459;SDS011;52058;49.822;6.754;2023-08-06T01:38:16;3.95;;;1.30;;
65459;SDS011;52058;49.822;6.754;2023-08-06T01:40:43;5.70;;;1.90;;
65459;SDS011;52058;49.822;6.754;2023-08-06T01:43:09;2.13;;;1.15;;
65459;SDS011;52058;49.822;6.754;2023-08-06T01:45:36;3.47;;;1.20;;
65459;SDS011;52058;49.822;6.754;2023-08-06T01:48:03;4.05;;;1.30;;
65459;SDS011;52058;49.822;6.754;2023-08-06T01:50:30;4.55;;;1.10;;
65459;SDS011;52058;49.822;6.754;2023-08-06T01:52:58;3.22;;;1.00;;
65459;SDS011;52058;49.822;6.754;2023-08-06T01:55:24;1.55;;;1.20;;
65459;SDS011;52058;49.822;6.754;2023-08-06T01:57:51;3.08;;;1.10;;
65459;SDS011;52058;49.822;6.754;2023-08-06T02:00:18;3.65;;;0.80;;
65459;SDS011;52058;49.822;6.754;2023-08-06T02:02:44;2.72;;;1.10;;
65459;SDS011;52058;49.822;6.754;2023-08-06T02:05:11;3.22;;;1.13;;
65459;SDS011;52058;49.822;6.754;2023-08-06T02:07:37;2.03;;;0.98;;
65459;SDS011;52058;49.822;6.754;2023-08-06T02:10:06;3.65;;;0.85;;
65459;SDS011;52058;49.822;6.754;2023-08-06T02:12:34;2.05;;;1.10;;
65459;SDS011;52058;49.822;6.754;2023-08-06T02:15:00;1.40;;;1.05;;
65459;SDS011;52058;49.822;6.754;2023-08-06T02:17:27;1.73;;;0.90;;
65459;SDS011;52058;49.822;6.754;2023-08-06T02:19:53;2.65;;;0.80;;
65459;SDS011;52058;49.822;6.754;2023-08-06T02:22:20;1.65;;;0.60;;
65459;SDS011;52058;49.822;6.754;2023-08-06T02:24:48;2.70;;;0.88;;
65459;SDS011;52058;49.822;6.754;2023-08-06T02:27:16;1.58;;;0.82;;
65459;SDS011;52058;49.822;6.754;2023-08-06T02:29:43;1.00;;;0.60;;
65459;SDS011;52058;49.822;6.754;2023-08-06T02:32:10;2.88;;;0.80;;
65459;SDS011;52058;49.822;6.754;2023-08-06T02:34:36;1.13;;;0.60;;
65459;SDS011;52058;49.822;6.754;2023-08-06T02:37:03;1.13;;;0.60;;
65459;SDS011;52058;49.822;6.754;2023-08-06T02:39:30;1.35;;;0.60;;
65459;SDS011;52058;49.822;6.754;2023-08-06T02:41:58;0.80;;;0.52;;
65459;SDS011;52058;49.822;6.754;2023-08-06T02:44:28;1.15;;;0.50;;
65459;SDS011;52058;49.822;6.754;2023-08-06T02:46:54;0.80;;;0.50;;
65459;SDS011;52058;49.822;6.754;2023-08-06T02:49:21;0.93;;;0.45;;
65459;SDS011;52058;49.822;6.754;2023-08-06T02:51:47;2.75;;;0.50;;
65459;SDS011;52058;49.822;6.754;2023-08-06T02:54:14;1.30;;;0.50;;
65459;SDS011;52058;49.822;6.754;2023-08-06T02:56:42;0.90;;;0.40;;
65459;SDS011;52058;49.822;6.754;2023-08-06T02:59:09;2.30;;;0.65;;
65459;SDS011;52058;49.822;6.754;2023-08-06T03:01:37;1.77;;;0.60;;
65459;SDS011;52058;49.822;6.754;2023-08-06T03:04:05;1.45;;;0.70;;
65459;SDS011;52058;49.822;6.754;2023-08-06T03:06:32;1.92;;;0.50;;
65459;SDS011;52058;49.822;6.754;2023-08-06T03:08:58;2.20;;;0.70;;
65459;SDS011;52058;49.822;6.754;2023-08-06T03:11:25;0.95;;;0.57;;
65459;SDS011;52058;49.822;6.754;2023-08-06T03:13:52;1.02;;;0.80;;
65459;SDS011;52058;49.822;6.754;2023-08-06T03:16:18;1.42;;;0.60;;
65459;SDS011;52058;49.822;6.754;2023-08-06T03:18:46;0.60;;;0.60;;
65459;SDS011;52058;49.822;6.754;2023-08-06T03:21:13;1.27;;;0.70;;
65459;SDS011;52058;49.822;6.754;2023-08-06T03:23:40;1.13;;;0.60;;
65459;SDS011;52058;49.822;6.754;2023-08-06T03:26:07;1.00;;;0.60;;
65459;SDS011;52058;49.822;6.754;2023-08-06T03:28:34;1.77;;;0.50;;
65459;SDS011;52058;49.822;6.754;2023-08-06T03:31:00;0.80;;;0.60;;
65459;SDS011;52058;49.822;6.754;2023-08-06T03:33:28;1.00;;;0.60;;
65459;SDS011;52058;49.822;6.754;2023-08-06T03:35:56;0.45;;;0.45;;
65459;SDS011;52058;49.822;6.754;2023-08-06T03:38:22;1.48;;;0.60;;
65459;SDS011;52058;49.822;6.754;2023-08-06T03:40:49;3.20;;;0.50;;
65459;SDS011;52058;49.822;6.754;2023-08-06T03:43:16;1.50;;;0.93;;
65459;SDS011;52058;49.822;6.754;2023-08-06T03:45:42;1.85;;;0.70;;
65459;SDS011;52058;49.822;6.754;2023-08-06T03:48:09;1.27;;;0.50;;
65459;SDS011;52058;49.822;6.754;2023-08-06T03:50:36;0.98;;;0.70;;
65459;SDS011;52058;49.822;6.754;2023-08-06T03:53:04;0.60;;;0.60;;
65459;SDS011;52058;49.822;6.754;2023-08-06T03:55:31;2.67;;;0.88;;
65459;SDS011;52058;49.822;6.754;2023-08-06T03:57:57;3.42;;;0.90;;
65459;SDS011;52058;49.822;6.754;2023-08-06T04:00:24;1.50;;;0.60;;
65459;SDS011;52058;49.822;6.754;2023-08-06T04:02:50;1.75;;;0.70;;
65459;SDS011;52058;49.822;6.754;2023-08-06T04:05:18;2.50;;;0.70;;
65459;SDS011;52058;49.822;6.754;2023-08-06T04:07:44;0.82;;;0.60;;
65459;SDS011;52058;49.822;6.754;2023-08-06T04:10:12;0.95;;;0.70;;
65459;SDS011;52058;49.822;6.754;2023-08-06T04:12:39;2.15;;;0.70;;
65459;SDS011;52058;49.822;6.754;2023-08-06T04:15:06;0.85;;;0.50;;
65459;SDS011;52058;49.822;6.754;2023-08-06T04:17:33;1.65;;;0.90;;
65459;SDS011;52058;49.822;6.754;2023-08-06T04:19:59;0.98;;;0.60;;
65459;SDS011;52058;49.822;6.754;2023-08-06T04:22:27;2.20;;;0.77;;
65459;SDS011;52058;49.822;6.754;2023-08-06T04:24:53;2.60;;;0.80;;
65459;SDS011;52058;49.822;6.754;2023-08-06T04:27:21;1.75;;;0.80;;
65459;SDS011;52058;49.822;6.754;2023-08-06T04:29:48;0.80;;;0.80;;
65459;SDS011;52058;49.822;6.754;2023-08-06T04:32:14;8.10;;;1.20;;
65459;SDS011;52058;49.822;6.754;2023-08-06T04:34:42;1.55;;;0.82;;
65459;SDS011;52058;49.822;6.754;2023-08-06T04:37:09;1.02;;;0.80;;
65459;SDS011;52058;49.822;6.754;2023-08-06T04:39:35;1.25;;;0.93;;
65459;SDS011;52058;49.822;6.754;2023-08-06T04:42:02;0.95;;;0.68;;
65459;SDS011;52058;49.822;6.754;2023-08-06T04:44:31;1.80;;;1.10;;
65459;SDS011;52058;49.822;6.754;2023-08-06T04:46:57;3.03;;;1.00;;
65459;SDS011;52058;49.822;6.754;2023-08-06T04:49:24;3.85;;;1.10;;
65459;SDS011;52058;49.822;6.754;2023-08-06T04:51:51;2.55;;;0.90;;
65459;SDS011;52058;49.822;6.754;2023-08-06T04:54:18;1.80;;;0.90;;
65459;SDS011;52058;49.822;6.754;2023-08-06T04:56:44;2.35;;;0.90;;
65459;SDS011;52058;49.822;6.754;2023-08-06T04:59:11;3.38;;;1.35;;
65459;SDS011;52058;49.822;6.754;2023-08-06T05:01:39;2.58;;;1.00;;
65459;SDS011;52058;49.822;6.754;2023-08-06T05:04:05;2.28;;;1.00;;
65459;SDS011;52058;49.822;6.754;2023-08-06T05:06:32;3.00;;;1.23;;
65459;SDS011;52058;49.822;6.754;2023-08-06T05:08:58;2.38;;;1.10;;
65459;SDS011;52058;49.822;6.754;2023-08-06T05:11:25;2.13;;;0.85;;
65459;SDS011;52058;49.822;6.754;2023-08-06T05:13:51;1.70;;;1.30;;
65459;SDS011;52058;49.822;6.754;2023-08-06T05:16:18;2.90;;;0.80;;
65459;SDS011;52058;49.822;6.754;2023-08-06T05:18:46;1.40;;;0.70;;
65459;SDS011;52058;49.822;6.754;2023-08-06T05:21:12;1.40;;;0.90;;
65459;SDS011;52058;49.822;6.754;2023-08-06T05:23:39;1.80;;;0.80;;
65459;SDS011;52058;49.822;6.754;2023-08-06T05:26:05;1.40;;;0.88;;
65459;SDS011;52058;49.822;6.754;2023-08-06T05:28:32;3.00;;;0.85;;
65459;SDS011;52058;49.822;6.754;2023-08-06T05:30:58;2.50;;;0.85;;
65459;SDS011;52058;49.822;6.754;2023-08-06T05:33:28;1.13;;;0.75;;
65459;SDS011;52058;49.822;6.754;2023-08-06T05:35:56;1.42;;;0.70;;
65459;SDS011;52058;49.822;6.754;2023-08-06T05:38:23;0.85;;;0.77;;
65459;SDS011;52058;49.822;6.754;2023-08-06T05:40:49;3.33;;;0.80;;
65459;SDS011;52058;49.822;6.754;2023-08-06T05:43:16;0.70;;;0.70;;
65459;SDS011;52058;49.822;6.754;2023-08-06T05:45:44;0.70;;;0.70;;
65459;SDS011;52058;49.822;6.754;2023-08-06T05:48:10;1.10;;;0.85;;
65459;SDS011;52058;49.822;6.754;2023-08-06T05:50:37;1.70;;;0.90;;
65459;SDS011;52058;49.822;6.754;2023-08-06T05:53:05;1.63;;;0.70;;
65459;SDS011;52058;49.822;6.754;2023-08-06T05:55:31;1.35;;;0.70;;
65459;SDS011;52058;49.822;6.754;2023-08-06T05:57:58;1.77;;;0.70;;
65459;SDS011;52058;49.822;6.754;2023-08-06T06:00:25;2.25;;;0.90;;
65459;SDS011;52058;49.822;6.754;2023-08-06T06:02:51;0.93;;;0.75;;
65459;SDS011;52058;49.822;6.754;2023-08-06T06:05:18;1.92;;;0.75;;
65459;SDS011;52058;49.822;6.754;2023-08-06T06:07:44;0.73;;;0.73;;
65459;SDS011;52058;49.822;6.754;2023-08-06T06:10:12;4.63;;;0.90;;
65459;SDS011;52058;49.822;6.754;2023-08-06T06:12:39;0.63;;;0.60;;
65459;SDS011;52058;49.822;6.754;2023-08-06T06:15:06;0.70;;;0.70;;
65459;SDS011;52058;49.822;6.754;2023-08-06T06:17:33;1.00;;;0.63;;
65459;SDS011;52058;49.822;6.754;2023-08-06T06:20:00;0.70;;;0.60;;
65459;SDS011;52058;49.822;6.754;2023-08-06T06:22:29;1.15;;;0.82;;
65459;SDS011;52058;49.822;6.754;2023-08-06T06:24:55;0.80;;;0.80;;
65459;SDS011;52058;49.822;6.754;2023-08-06T06:27:23;1.10;;;0.70;;
65459;SDS011;52058;49.822;6.754;2023-08-06T06:29:50;2.00;;;0.73;;
65459;SDS011;52058;49.822;6.754;2023-08-06T06:32:17;0.60;;;0.60;;
65459;SDS011;52058;49.822;6.754;2023-08-06T06:34:44;1.60;;;0.70;;
65459;SDS011;52058;49.822;6.754;2023-08-06T06:37:10;1.33;;;0.57;;
65459;SDS011;52058;49.822;6.754;2023-08-06T06:39:37;0.70;;;0.70;;
65459;SDS011;52058;49.822;6.754;2023-08-06T06:42:04;0.85;;;0.60;;
65459;SDS011;52058;49.822;6.754;2023-08-06T06:44:32;0.60;;;0.60;;
65459;SDS011;52058;49.822;6.754;2023-08-06T06:46:59;1.38;;;0.75;;
65459;SDS011;52058;49.822;6.754;2023-08-06T06:49:25;1.10;;;0.80;;
65459;SDS011;52058;49.822;6.754;2023-08-06T06:51:52;0.77;;;0.70;;
65459;SDS011;52058;49.822;6.754;2023-08-06T06:54:18;0.98;;;0.80;;
65459;SDS011;52058;49.822;6.754;2023-08-06T06:56:45;1.52;;;0.70;;
65459;SDS011;52058;49.822;6.754;2023-08-06T06:59:11;1.27;;;0.70;;
65459;SDS011;52058;49.822;6.754;2023-08-06T07:01:39;0.60;;;0.50;;
65459;SDS011;52058;49.822;6.754;2023-08-06T07:04:06;0.63;;;0.60;;
65459;SDS011;52058;49.822;6.754;2023-08-06T07:06:32;0.85;;;0.70;;
65459;SDS011;52058;49.822;6.754;2023-08-06T07:08:59;2.08;;;0.70;;
65459;SDS011;52058;49.822;6.754;2023-08-06T07:11:25;2.15;;;0.60;;
65459;SDS011;52058;49.822;6.754;2023-08-06T07:13:55;0.55;;;0.55;;
65459;SDS011;52058;49.822;6.754;2023-08-06T07:16:23;0.50;;;0.50;;
65459;SDS011;52058;49.822;6.754;2023-08-06T07:18:52;0.70;;;0.70;;
65459;SDS011;52058;49.822;6.754;2023-08-06T07:21:20;1.08;;;0.40;;
65459;SDS011;52058;49.822;6.754;2023-08-06T07:23:46;0.30;;;0.30;;
65459;SDS011;52058;49.822;6.754;2023-08-06T07:26:14;0.70;;;0.57;;
65459;SDS011;52058;49.822;6.754;2023-08-06T07:28:40;0.95;;;0.68;;
65459;SDS011;52058;49.822;6.754;2023-08-06T07:31:07;0.50;;;0.50;;
65459;SDS011;52058;49.822;6.754;2023-08-06T07:33:34;0.40;;;0.40;;
65459;SDS011;52058;49.822;6.754;2023-08-06T07:36:08;1.02;;;0.50;;
65459;SDS011;52058;49.822;6.754;2023-08-06T07:38:36;0.40;;;0.40;;
65459;SDS011;52058;49.822;6.754;2023-08-06T07:41:02;0.50;;;0.50;;
65459;SDS011;52058;49.822;6.754;2023-08-06T07:43:29;0.45;;;0.43;;
65459;SDS011;52058;49.822;6.754;2023-08-06T07:45:57;0.47;;;0.47;;
65459;SDS011;52058;49.822;6.754;2023-08-06T07:48:24;2.25;;;0.50;;
65459;SDS011;52058;49.822;6.754;2023-08-06T07:50:51;0.75;;;0.63;;
65459;SDS011;52058;49.822;6.754;2023-08-06T07:53:19;0.40;;;0.40;;
65459;SDS011;52058;49.822;6.754;2023-08-06T07:55:48;2.70;;;0.57;;
65459;SDS011;52058;49.822;6.754;2023-08-06T07:58:16;0.40;;;0.40;;
65459;SDS011;52058;49.822;6.754;2023-08-06T08:00:42;0.47;;;0.30;;
65459;SDS011;52058;49.822;6.754;2023-08-06T08:03:10;0.30;;;0.30;;
65459;SDS011;52058;49.822;6.754;2023-08-06T08:05:37;0.30;;;0.30;;
65459;SDS011;52058;49.822;6.754;2023-08-06T08:08:03;0.30;;;0.30;;
65459;SDS011;52058;49.822;6.754;2023-08-06T08:10:32;1.30;;;0.35;;
65459;SDS011;52058;49.822;6.754;2023-08-06T08:12:59;1.00;;;0.40;;
65459;SDS011;52058;49.822;6.754;2023-08-06T08:15:27;0.40;;;0.40;;
65459;SDS011;52058;49.822;6.754;2023-08-06T08:17:54;1.25;;;0.40;;
65459;SDS011;52058;49.822;6.754;2023-08-06T08:20:21;0.32;;;0.32;;
65459;SDS011;52058;49.822;6.754;2023-08-06T08:22:48;0.30;;;0.30;;
65459;SDS011;52058;49.822;6.754;2023-08-06T08:25:15;0.98;;;0.40;;
65459;SDS011;52058;49.822;6.754;2023-08-06T08:27:43;0.40;;;0.40;;
65459;SDS011;52058;49.822;6.754;2023-08-06T08:30:10;0.30;;;0.30;;
65459;SDS011;52058;49.822;6.754;2023-08-06T08:32:36;0.43;;;0.43;;
65459;SDS011;52058;49.822;6.754;2023-08-06T08:35:03;0.40;;;0.40;;
65459;SDS011;52058;49.822;6.754;2023-08-06T08:37:30;0.57;;;0.55;;
65459;SDS011;52058;49.822;6.754;2023-08-06T08:39:57;0.60;;;0.60;;
65459;SDS011;52058;49.822;6.754;2023-08-06T08:42:23;0.40;;;0.40;;
65459;SDS011;52058;49.822;6.754;2023-08-06T08:44:51;0.30;;;0.30;;
65459;SDS011;52058;49.822;6.754;2023-08-06T08:47:19;0.57;;;0.40;;
65459;SDS011;52058;49.822;6.754;2023-08-06T08:49:46;0.40;;;0.40;;
65459;SDS011;52058;49.822;6.754;2023-08-06T08:52:15;0.40;;;0.40;;
65459;SDS011;52058;49.822;6.754;2023-08-06T08:54:43;2.10;;;0.60;;
65459;SDS011;52058;49.822;6.754;2023-08-06T08:57:10;0.85;;;0.40;;
65459;SDS011;52058;49.822;6.754;2023-08-06T08:59:37;0.57;;;0.40;;
65459;SDS011;52058;49.822;6.754;2023-08-06T09:02:05;1.70;;;0.45;;
65459;SDS011;52058;49.822;6.754;2023-08-06T09:04:42;0.40;;;0.40;;
65459;SDS011;52058;49.822;6.754;2023-08-06T09:07:49;0.88;;;0.60;;
65459;SDS011;52058;49.822;6.754;2023-08-06T09:13:48;0.50;;;0.50;;
65459;SDS011;52058;49.822;6.754;2023-08-06T09:16:19;1.40;;;0.60;;
65459;SDS011;52058;49.822;6.754;2023-08-06T09:19:10;1.10;;;0.52;;
65459;SDS011;52058;49.822;6.754;2023-08-06T09:21:39;2.20;;;0.50;;
65459;SDS011;52058;49.822;6.754;2023-08-06T09:24:14;0.40;;;0.40;;
65459;SDS011;52058;49.822;6.754;2023-08-06T09:26:41;0.50;;;0.50;;
65459;SDS011;52058;49.822;6.754;2023-08-06T09:29:10;1.10;;;0.70;;
65459;SDS011;52058;49.822;6.754;2023-08-06T09:31:40;1.83;;;0.90;;
65459;SDS011;52058;49.822;6.754;2023-08-06T09:34:11;0.50;;;0.50;;
65459;SDS011;52058;49.822;6.754;2023-08-06T09:36:39;0.50;;;0.50;;
65459;SDS011;52058;49.822;6.754;2023-08-06T09:39:12;0.50;;;0.50;;
65459;SDS011;52058;49.822;6.754;2023-08-06T09:41:39;1.55;;;0.50;;
65459;SDS011;52058;49.822;6.754;2023-08-06T09:44:10;1.85;;;0.73;;
65459;SDS011;52058;49.822;6.754;2023-08-06T09:46:42;0.80;;;0.50;;
65459;SDS011;52058;49.822;6.754;2023-08-06T09:49:08;0.95;;;0.40;;
65459;SDS011;52058;49.822;6.754;2023-08-06T09:51:36;1.02;;;0.70;;
65459;SDS011;52058;49.822;6.754;2023-08-06T09:54:04;1.25;;;0.70;;
65459;SDS011;52058;49.822;6.754;2023-08-06T09:56:32;0.68;;;0.60;;
65459;SDS011;52058;49.822;6.754;2023-08-06T09:59:02;1.23;;;0.63;;
65459;SDS011;52058;49.822;6.754;2023-08-06T10:01:30;0.75;;;0.63;;
65459;SDS011;52058;49.822;6.754;2023-08-06T10:03:58;1.00;;;0.60;;
65459;SDS011;52058;49.822;6.754;2023-08-06T10:08:53;0.98;;;0.88;;
65459;SDS011;52058;49.822;6.754;2023-08-06T10:11:20;1.48;;;0.80;;
65459;SDS011;52058;49.822;6.754;2023-08-06T10:13:49;1.63;;;0.82;;
65459;SDS011;52058;49.822;6.754;2023-08-06T10:16:18;2.05;;;0.80;;
65459;SDS011;52058;49.822;6.754;2023-08-06T10:18:46;2.33;;;0.90;;
65459;SDS011;52058;49.822;6.754;2023-08-06T10:21:15;1.50;;;1.00;;
65459;SDS011;52058;49.822;6.754;2023-08-06T10:23:42;1.23;;;0.80;;
65459;SDS011;52058;49.822;6.754;2023-08-06T10:26:10;1.45;;;1.10;;
65459;SDS011;52058;49.822;6.754;2023-08-06T10:28:37;2.15;;;1.10;;
65459;SDS011;52058;49.822;6.754;2023-08-06T10:31:04;1.70;;;0.85;;
65459;SDS011;52058;49.822;6.754;2023-08-06T10:33:41;1.58;;;0.80;;
65459;SDS011;52058;49.822;6.754;2023-08-06T10:36:09;1.15;;;0.98;;
65459;SDS011;52058;49.822;6.754;2023-08-06T10:38:43;1.60;;;1.08;;
65459;SDS011;52058;49.822;6.754;2023-08-06T10:41:16;1.60;;;0.70;;
65459;SDS011;52058;49.822;6.754;2023-08-06T10:43:45;1.70;;;0.90;;
65459;SDS011;52058;49.822;6.754;2023-08-06T10:46:21;1.95;;;0.80;;
65459;SDS011;52058;49.822;6.754;2023-08-06T10:48:48;1.50;;;0.85;;
65459;SDS011;52058;49.822;6.754;2023-08-06T10:51:15;1.30;;;0.98;;
65459;SDS011;52058;49.822;6.754;2023-08-06T10:53:42;0.85;;;0.80;;
65459;SDS011;52058;49.822;6.754;2023-08-06T10:56:13;1.25;;;0.68;;
65459;SDS011;52058;49.822;6.754;2023-08-06T10:58:41;1.52;;;0.90;;
65459;SDS011;52058;49.822;6.754;2023-08-06T11:01:08;1.00;;;0.90;;
65459;SDS011;52058;49.822;6.754;2023-08-06T11:03:35;1.17;;;0.98;;
65459;SDS011;52058;49.822;6.754;2023-08-06T11:06:02;1.95;;;0.90;;
65459;SDS011;52058;49.822;6.754;2023-08-06T11:08:33;1.65;;;0.70;;
65459;SDS011;52058;49.822;6.754;2023-08-06T11:11:10;2.75;;;0.70;;
65459;SDS011;52058;49.822;6.754;2023-08-06T11:13:38;1.85;;;0.60;;
65459;SDS011;52058;49.822;6.754;2023-08-06T11:16:06;0.88;;;0.60;;
65459;SDS011;52058;49.822;6.754;2023-08-06T11:18:33;1.55;;;0.70;;
65459;SDS011;52058;49.822;6.754;2023-08-06T11:21:00;0.93;;;0.60;;
65459;SDS011;52058;49.822;6.754;2023-08-06T11:23:27;2.05;;;0.60;;
65459;SDS011;52058;49.822;6.754;2023-08-06T11:25:54;1.88;;;1.15;;
65459;SDS011;52058;49.822;6.754;2023-08-06T11:28:21;1.02;;;0.70;;
65459;SDS011;52058;49.822;6.754;2023-08-06T11:30:48;2.08;;;0.60;;
65459;SDS011;52058;49.822;6.754;2023-08-06T11:33:17;1.10;;;0.70;;
65459;SDS011;52058;49.822;6.754;2023-08-06T11:35:46;0.80;;;0.68;;
65459;SDS011;52058;49.822;6.754;2023-08-06T11:38:14;0.70;;;0.50;;
65459;SDS011;52058;49.822;6.754;2023-08-06T11:40:41;0.77;;;0.60;;
65459;SDS011;52058;49.822;6.754;2023-08-06T11:43:09;1.17;;;0.63;;
65459;SDS011;52058;49.822;6.754;2023-08-06T11:45:36;0.90;;;0.50;;
65459;SDS011;52058;49.822;6.754;2023-08-06T11:48:03;0.60;;;0.55;;
65459;SDS011;52058;49.822;6.754;2023-08-06T11:50:34;1.08;;;0.60;;
65459;SDS011;52058;49.822;6.754;2023-08-06T11:55:30;2.65;;;0.60;;
65459;SDS011;52058;49.822;6.754;2023-08-06T11:57:57;0.60;;;0.50;;
65459;SDS011;52058;49.822;6.754;2023-08-06T12:00:24;2.28;;;0.70;;
65459;SDS011;52058;49.822;6.754;2023-08-06T12:02:52;3.83;;;0.80;;
65459;SDS011;52058;49.822;6.754;2023-08-06T12:05:20;1.38;;;0.60;;
65459;SDS011;52058;49.822;6.754;2023-08-06T12:07:50;1.55;;;0.65;;
65459;SDS011;52058;49.822;6.754;2023-08-06T12:10:18;0.95;;;0.60;;
65459;SDS011;52058;49.822;6.754;2023-08-06T12:12:45;1.00;;;0.52;;
65459;SDS011;52058;49.822;6.754;2023-08-06T12:15:12;1.55;;;0.60;;
65459;SDS011;52058;49.822;6.754;2023-08-06T12:17:39;0.85;;;0.50;;
65459;SDS011;52058;49.822;6.754;2023-08-06T12:20:06;0.80;;;0.60;;
65459;SDS011;52058;49.822;6.754;2023-08-06T12:22:33;2.47;;;0.60;;
65459;SDS011;52058;49.822;6.754;2023-08-06T12:25:02;0.65;;;0.60;;
65459;SDS011;52058;49.822;6.754;2023-08-06T12:27:31;2.03;;;0.50;;
65459;SDS011;52058;49.822;6.754;2023-08-06T12:29:58;1.10;;;0.60;;
65459;SDS011;52058;49.822;6.754;2023-08-06T12:32:25;0.50;;;0.50;;
65459;SDS011;52058;49.822;6.754;2023-08-06T12:34:52;0.63;;;0.52;;
65459;SDS011;52058;49.822;6.754;2023-08-06T12:37:18;0.77;;;0.57;;
65459;SDS011;52058;49.822;6.754;2023-08-06T12:39:45;1.13;;;0.57;;
65459;SDS011;52058;49.822;6.754;2023-08-06T12:42:13;0.95;;;0.63;;
65459;SDS011;52058;49.822;6.754;2023-08-06T12:44:39;1.75;;;0.50;;
65459;SDS011;52058;49.822;6.754;2023-08-06T12:47:06;1.55;;;0.60;;
65459;SDS011;52058;49.822;6.754;2023-08-06T12:49:33;2.97;;;0.68;;
65459;SDS011;52058;49.822;6.754;2023-08-06T12:51:59;0.40;;;0.40;;
65459;SDS011;52058;49.822;6.754;2023-08-06T12:54:26;0.77;;;0.40;;
65459;SDS011;52058;49.822;6.754;2023-08-06T12:56:53;1.17;;;0.63;;
65459;SDS011;52058;49.822;6.754;2023-08-06T12:59:22;0.40;;;0.40;;
65459;SDS011;52058;49.822;6.754;2023-08-06T13:01:48;0.90;;;0.43;;
65459;SDS011;52058;49.822;6.754;2023-08-06T13:04:15;1.13;;;0.50;;
65459;SDS011;52058;49.822;6.754;2023-08-06T13:06:41;1.05;;;0.90;;
65459;SDS011;52058;49.822;6.754;2023-08-06T13:09:08;1.15;;;0.60;;
65459;SDS011;52058;49.822;6.754;2023-08-06T13:11:35;1.35;;;0.80;;
65459;SDS011;52058;49.822;6.754;2023-08-06T13:14:06;1.42;;;1.20;;
65459;SDS011;52058;49.822;6.754;2023-08-06T13:16:35;0.95;;;0.60;;
65459;SDS011;52058;49.822;6.754;2023-08-06T13:19:03;0.47;;;0.47;;
65459;SDS011;52058;49.822;6.754;2023-08-06T13:21:34;1.60;;;0.70;;
65459;SDS011;52058;49.822;6.754;2023-08-06T13:24:02;1.60;;;0.77;;
65459;SDS011;52058;49.822;6.754;2023-08-06T13:26:28;0.73;;;0.70;;
65459;SDS011;52058;49.822;6.754;2023-08-06T13:28:56;0.45;;;0.40;;
65459;SDS011;52058;49.822;6.754;2023-08-06T13:31:23;1.27;;;0.60;;
65459;SDS011;52058;49.822;6.754;2023-08-06T13:33:51;0.60;;;0.50;;
65459;SDS011;52058;49.822;6.754;2023-08-06T13:36:19;0.50;;;0.50;;
65459;SDS011;52058;49.822;6.754;2023-08-06T13:38:45;0.93;;;0.60;;
65459;SDS011;52058;49.822;6.754;2023-08-06T13:41:14;2.30;;;0.70;;
65459;SDS011;52058;49.822;6.754;2023-08-06T13:43:41;1.75;;;0.60;;
65459;SDS011;52058;49.822;6.754;2023-08-06T13:46:08;1.15;;;0.70;;
65459;SDS011;52058;49.822;6.754;2023-08-06T13:48:39;0.75;;;0.55;;
65459;SDS011;52058;49.822;6.754;2023-08-06T13:51:06;1.30;;;0.68;;
65459;SDS011;52058;49.822;6.754;2023-08-06T13:53:33;1.17;;;0.70;;
65459;SDS011;52058;49.822;6.754;2023-08-06T13:56:00;0.82;;;0.63;;
65459;SDS011;52058;49.822;6.754;2023-08-06T13:58:26;0.70;;;0.70;;
65459;SDS011;52058;49.822;6.754;2023-08-06T14:00:53;0.43;;;0.43;;
65459;SDS011;52058;49.822;6.754;2023-08-06T14:03:20;0.50;;;0.50;;
65459;SDS011;52058;49.822;6.754;2023-08-06T14:05:46;0.55;;;0.55;;
65459;SDS011;52058;49.822;6.754;2023-08-06T14:08:14;0.60;;;0.60;;
65459;SDS011;52058;49.822;6.754;2023-08-06T14:10:43;1.80;;;0.60;;
65459;SDS011;52058;49.822;6.754;2023-08-06T14:13:09;2.00;;;0.77;;
65459;SDS011;52058;49.822;6.754;2023-08-06T14:15:36;1.38;;;0.75;;
65459;SDS011;52058;49.822;6.754;2023-08-06T14:18:04;1.00;;;0.80;;
65459;SDS011;52058;49.822;6.754;2023-08-06T14:20:32;0.73;;;0.60;;
65459;SDS011;52058;49.822;6.754;2023-08-06T14:22:59;1.08;;;0.60;;
65459;SDS011;52058;49.822;6.754;2023-08-06T14:25:27;1.48;;;0.70;;
65459;SDS011;52058;49.822;6.754;2023-08-06T14:27:54;0.50;;;0.50;;
65459;SDS011;52058;49.822;6.754;2023-08-06T14:30:21;1.08;;;0.63;;
65459;SDS011;52058;49.822;6.754;2023-08-06T14:32:47;0.50;;;0.50;;
65459;SDS011;52058;49.822;6.754;2023-08-06T14:35:14;1.05;;;0.82;;
65459;SDS011;52058;49.822;6.754;2023-08-06T14:37:40;1.55;;;0.68;;
65459;SDS011;52058;49.822;6.754;2023-08-06T14:40:07;1.88;;;0.70;;
65459;SDS011;52058;49.822;6.754;2023-08-06T14:42:36;2.22;;;0.90;;
65459;SDS011;52058;49.822;6.754;2023-08-06T14:45:03;2.92;;;0.90;;
65459;SDS011;52058;49.822;6.754;2023-08-06T14:47:30;1.45;;;0.70;;
65459;SDS011;52058;49.822;6.754;2023-08-06T14:49:57;1.30;;;0.85;;
65459;SDS011;52058;49.822;6.754;2023-08-06T14:52:23;3.40;;;0.95;;
65459;SDS011;52058;49.822;6.754;2023-08-06T14:54:50;1.00;;;0.90;;
65459;SDS011;52058;49.822;6.754;2023-08-06T14:57:17;0.95;;;0.80;;
65459;SDS011;52058;49.822;6.754;2023-08-06T14:59:45;1.05;;;0.82;;